sensor_id;sensor_type;location;lat;lon;timestamp;temperature;humidity
17170;DHT22;8700;48.222;16.342;2022-11-20T00:00:14;3.60;99.90
17170;DHT22;8700;48.222;16.342;2022-11-20T00:03:35;3.60;99.90
17170;DHT22;8700;48.222;16.342;2022-11-20T00:06:57;3.60;99.90
17170;DHT22;8700;48.222;16.342;2022-11-20T00:10:19;3.70;99.90
17170;DHT22;8700;48.222;16.342;2022-11-20T00:13:41;3.70;99.90
17170;DHT22;8700;48.222;16.342;2022-11-20T00:17:02;3.70;99.90
17170;DHT22;8700;48.222;16.342;2022-11-20T00:20:23;3.70;99.90
17170;DHT22;8700;48.222;16.342;2022-11-20T00:23:45;3.60;99.90
17170;DHT22;8700;48.222;16.342;2022-11-20T00:27:08;3.60;99.90
17170;DHT22;8700;48.222;16.342;2022-11-20T00:30:29;3.60;99.90
17170;DHT22;8700;48.222;16.342;2022-11-20T00:33:50;3.60;99.90
17170;DHT22;8700;48.222;16.342;2022-11-20T00:37:11;3.50;99.90
17170;DHT22;8700;48.222;16.342;2022-11-20T00:40:33;3.50;99.90
17170;DHT22;8700;48.222;16.342;2022-11-20T00:43:57;3.40;99.90
17170;DHT22;8700;48.222;16.342;2022-11-20T00:47:19;3.40;99.90
17170;DHT22;8700;48.222;16.342;2022-11-20T00:50:41;3.50;99.90
17170;DHT22;8700;48.222;16.342;2022-11-20T00:54:02;3.50;99.90
17170;DHT22;8700;48.222;16.342;2022-11-20T00:57:24;3.60;99.90
17170;DHT22;8700;48.222;16.342;2022-11-20T01:00:46;3.60;99.90
17170;DHT22;8700;48.222;16.342;2022-11-20T01:04:09;3.50;99.90
17170;DHT22;8700;48.222;16.342;2022-11-20T01:07:32;3.40;99.90
17170;DHT22;8700;48.222;16.342;2022-11-20T01:10:53;3.30;99.90
17170;DHT22;8700;48.222;16.342;2022-11-20T01:14:20;3.40;99.90
17170;DHT22;8700;48.222;16.342;2022-11-20T01:17:42;3.40;99.90
17170;DHT22;8700;48.222;16.342;2022-11-20T01:21:06;3.40;99.90
17170;DHT22;8700;48.222;16.342;2022-11-20T01:24:27;3.50;99.90
17170;DHT22;8700;48.222;16.342;2022-11-20T01:27:49;3.70;99.90
17170;DHT22;8700;48.222;16.342;2022-11-20T01:31:12;3.70;99.90
17170;DHT22;8700;48.222;16.342;2022-11-20T01:34:36;3.60;99.90
17170;DHT22;8700;48.222;16.342;2022-11-20T01:37:57;3.50;99.90
17170;DHT22;8700;48.222;16.342;2022-11-20T01:41:18;3.50;99.90
17170;DHT22;8700;48.222;16.342;2022-11-20T01:44:55;3.50;99.90
17170;DHT22;8700;48.222;16.342;2022-11-20T01:48:18;3.60;99.90
17170;DHT22;8700;48.222;16.342;2022-11-20T01:51:43;3.60;99.90
17170;DHT22;8700;48.222;16.342;2022-11-20T01:55:08;3.50;99.90
17170;DHT22;8700;48.222;16.342;2022-11-20T01:58:33;3.50;99.90
17170;DHT22;8700;48.222;16.342;2022-11-20T02:01:56;3.50;99.90
17170;DHT22;8700;48.222;16.342;2022-11-20T02:05:23;3.60;99.90
17170;DHT22;8700;48.222;16.342;2022-11-20T02:08:46;3.60;99.90
17170;DHT22;8700;48.222;16.342;2022-11-20T02:12:07;3.60;99.90
17170;DHT22;8700;48.222;16.342;2022-11-20T02:15:49;3.60;99.90
17170;DHT22;8700;48.222;16.342;2022-11-20T02:19:19;3.60;99.90
17170;DHT22;8700;48.222;16.342;2022-11-20T02:22:47;3.50;99.90
17170;DHT22;8700;48.222;16.342;2022-11-20T02:26:13;3.70;99.90
17170;DHT22;8700;48.222;16.342;2022-11-20T02:29:38;3.70;99.90
17170;DHT22;8700;48.222;16.342;2022-11-20T02:33:02;3.70;99.90
17170;DHT22;8700;48.222;16.342;2022-11-20T02:36:25;3.70;99.90
17170;DHT22;8700;48.222;16.342;2022-11-20T02:39:49;3.80;99.90
17170;DHT22;8700;48.222;16.342;2022-11-20T02:43:12;3.90;99.90
17170;DHT22;8700;48.222;16.342;2022-11-20T02:46:34;3.90;99.90
17170;DHT22;8700;48.222;16.342;2022-11-20T02:49:55;3.90;99.90
17170;DHT22;8700;48.222;16.342;2022-11-20T02:53:17;3.80;99.90
17170;DHT22;8700;48.222;16.342;2022-11-20T02:56:39;3.60;99.90
17170;DHT22;8700;48.222;16.342;2022-11-20T03:00:03;3.60;99.90
17170;DHT22;8700;48.222;16.342;2022-11-20T03:03:24;3.60;99.90
17170;DHT22;8700;48.222;16.342;2022-11-20T03:06:46;3.70;99.90
17170;DHT22;8700;48.222;16.342;2022-11-20T03:10:08;3.60;99.90
17170;DHT22;8700;48.222;16.342;2022-11-20T03:13:29;3.80;99.90
17170;DHT22;8700;48.222;16.342;2022-11-20T03:16:52;3.70;99.90
17170;DHT22;8700;48.222;16.342;2022-11-20T03:20:13;3.70;99.90
17170;DHT22;8700;48.222;16.342;2022-11-20T03:23:35;3.70;99.90
17170;DHT22;8700;48.222;16.342;2022-11-20T03:26:57;3.60;99.90
17170;DHT22;8700;48.222;16.342;2022-11-20T03:30:18;3.60;99.90
17170;DHT22;8700;48.222;16.342;2022-11-20T03:33:41;3.60;99.90
17170;DHT22;8700;48.222;16.342;2022-11-20T03:37:03;3.70;99.90
17170;DHT22;8700;48.222;16.342;2022-11-20T03:40:24;3.70;99.90
17170;DHT22;8700;48.222;16.342;2022-11-20T03:43:47;3.60;99.90
17170;DHT22;8700;48.222;16.342;2022-11-20T03:47:09;3.70;99.90
17170;DHT22;8700;48.222;16.342;2022-11-20T03:50:31;3.80;99.90
17170;DHT22;8700;48.222;16.342;2022-11-20T03:53:54;3.90;99.90
17170;DHT22;8700;48.222;16.342;2022-11-20T03:57:16;3.90;99.90
17170;DHT22;8700;48.222;16.342;2022-11-20T04:00:37;3.80;99.90
17170;DHT22;8700;48.222;16.342;2022-11-20T04:03:59;3.70;99.90
17170;DHT22;8700;48.222;16.342;2022-11-20T04:07:22;3.60;99.90
17170;DHT22;8700;48.222;16.342;2022-11-20T04:10:43;3.60;99.90
17170;DHT22;8700;48.222;16.342;2022-11-20T04:14:06;3.80;99.90
17170;DHT22;8700;48.222;16.342;2022-11-20T04:17:27;3.70;99.90
17170;DHT22;8700;48.222;16.342;2022-11-20T04:20:49;3.80;99.90
17170;DHT22;8700;48.222;16.342;2022-11-20T04:24:11;3.90;99.90
17170;DHT22;8700;48.222;16.342;2022-11-20T04:27:33;4.00;99.90
17170;DHT22;8700;48.222;16.342;2022-11-20T04:30:54;4.10;99.90
17170;DHT22;8700;48.222;16.342;2022-11-20T04:34:22;4.00;99.90
17170;DHT22;8700;48.222;16.342;2022-11-20T04:37:43;4.00;99.90
17170;DHT22;8700;48.222;16.342;2022-11-20T04:41:07;3.80;99.90
17170;DHT22;8700;48.222;16.342;2022-11-20T04:44:28;3.80;99.90
17170;DHT22;8700;48.222;16.342;2022-11-20T04:47:50;3.70;99.90
17170;DHT22;8700;48.222;16.342;2022-11-20T04:51:11;3.80;99.90
17170;DHT22;8700;48.222;16.342;2022-11-20T04:54:32;3.70;99.90
17170;DHT22;8700;48.222;16.342;2022-11-20T04:57:55;3.60;99.90
17170;DHT22;8700;48.222;16.342;2022-11-20T05:01:18;3.50;99.90
17170;DHT22;8700;48.222;16.342;2022-11-20T05:04:39;3.60;99.90
17170;DHT22;8700;48.222;16.342;2022-11-20T05:08:01;3.70;99.90
17170;DHT22;8700;48.222;16.342;2022-11-20T05:11:23;3.70;99.90
17170;DHT22;8700;48.222;16.342;2022-11-20T05:14:45;3.60;99.90
17170;DHT22;8700;48.222;16.342;2022-11-20T05:18:07;3.50;99.90
17170;DHT22;8700;48.222;16.342;2022-11-20T05:21:30;3.60;99.90
17170;DHT22;8700;48.222;16.342;2022-11-20T05:24:52;3.50;99.90
17170;DHT22;8700;48.222;16.342;2022-11-20T05:28:13;3.40;99.90
17170;DHT22;8700;48.222;16.342;2022-11-20T05:31:36;3.20;99.90
17170;DHT22;8700;48.222;16.342;2022-11-20T05:34:57;3.20;99.90
17170;DHT22;8700;48.222;16.342;2022-11-20T05:38:18;3.20;99.90
17170;DHT22;8700;48.222;16.342;2022-11-20T05:41:39;3.30;99.90
17170;DHT22;8700;48.222;16.342;2022-11-20T05:45:02;3.30;99.90
17170;DHT22;8700;48.222;16.342;2022-11-20T05:48:25;3.30;99.90
17170;DHT22;8700;48.222;16.342;2022-11-20T05:51:47;3.20;99.90
17170;DHT22;8700;48.222;16.342;2022-11-20T05:55:08;3.20;99.90
17170;DHT22;8700;48.222;16.342;2022-11-20T05:58:30;3.20;99.90
17170;DHT22;8700;48.222;16.342;2022-11-20T06:01:51;3.20;99.90
17170;DHT22;8700;48.222;16.342;2022-11-20T06:05:14;3.20;99.90
17170;DHT22;8700;48.222;16.342;2022-11-20T06:08:35;3.30;99.90
17170;DHT22;8700;48.222;16.342;2022-11-20T06:11:57;3.30;99.90
17170;DHT22;8700;48.222;16.342;2022-11-20T06:15:18;3.30;99.90
17170;DHT22;8700;48.222;16.342;2022-11-20T06:18:40;3.20;99.90
17170;DHT22;8700;48.222;16.342;2022-11-20T06:22:02;3.20;99.90
17170;DHT22;8700;48.222;16.342;2022-11-20T06:25:24;3.20;99.90
17170;DHT22;8700;48.222;16.342;2022-11-20T06:28:45;3.20;99.90
17170;DHT22;8700;48.222;16.342;2022-11-20T06:32:08;3.20;99.90
17170;DHT22;8700;48.222;16.342;2022-11-20T06:35:29;3.10;99.90
17170;DHT22;8700;48.222;16.342;2022-11-20T06:38:52;3.00;99.90
17170;DHT22;8700;48.222;16.342;2022-11-20T06:42:13;3.20;99.90
17170;DHT22;8700;48.222;16.342;2022-11-20T06:45:34;3.30;99.90
17170;DHT22;8700;48.222;16.342;2022-11-20T06:48:56;3.30;99.90
17170;DHT22;8700;48.222;16.342;2022-11-20T06:52:18;3.40;99.90
17170;DHT22;8700;48.222;16.342;2022-11-20T06:55:43;3.40;99.90
17170;DHT22;8700;48.222;16.342;2022-11-20T06:59:05;3.30;99.90
17170;DHT22;8700;48.222;16.342;2022-11-20T07:02:27;3.20;99.90
17170;DHT22;8700;48.222;16.342;2022-11-20T07:05:48;3.30;99.90
17170;DHT22;8700;48.222;16.342;2022-11-20T07:09:10;3.20;99.90
17170;DHT22;8700;48.222;16.342;2022-11-20T07:12:32;3.20;99.90
17170;DHT22;8700;48.222;16.342;2022-11-20T07:15:54;3.30;99.90
17170;DHT22;8700;48.222;16.342;2022-11-20T07:19:16;3.40;99.90
17170;DHT22;8700;48.222;16.342;2022-11-20T07:22:37;3.40;99.90
17170;DHT22;8700;48.222;16.342;2022-11-20T07:26:02;3.30;99.90
17170;DHT22;8700;48.222;16.342;2022-11-20T07:29:25;3.30;99.90
17170;DHT22;8700;48.222;16.342;2022-11-20T07:32:47;3.30;99.90
17170;DHT22;8700;48.222;16.342;2022-11-20T07:36:08;3.40;99.90
17170;DHT22;8700;48.222;16.342;2022-11-20T07:39:30;3.60;99.90
17170;DHT22;8700;48.222;16.342;2022-11-20T07:42:53;3.50;99.90
17170;DHT22;8700;48.222;16.342;2022-11-20T07:46:16;3.50;99.90
17170;DHT22;8700;48.222;16.342;2022-11-20T07:49:37;3.60;99.90
17170;DHT22;8700;48.222;16.342;2022-11-20T07:53:03;3.60;99.90
17170;DHT22;8700;48.222;16.342;2022-11-20T07:56:24;3.60;99.90
17170;DHT22;8700;48.222;16.342;2022-11-20T07:59:45;3.60;99.90
17170;DHT22;8700;48.222;16.342;2022-11-20T08:03:08;3.70;99.90
17170;DHT22;8700;48.222;16.342;2022-11-20T08:06:30;3.70;99.90
17170;DHT22;8700;48.222;16.342;2022-11-20T08:09:51;3.70;99.90
17170;DHT22;8700;48.222;16.342;2022-11-20T08:13:12;3.70;99.90
17170;DHT22;8700;48.222;16.342;2022-11-20T08:16:51;3.80;99.90
17170;DHT22;8700;48.222;16.342;2022-11-20T08:20:14;3.90;99.90
17170;DHT22;8700;48.222;16.342;2022-11-20T08:23:37;3.90;99.90
17170;DHT22;8700;48.222;16.342;2022-11-20T08:26:59;4.10;99.90
17170;DHT22;8700;48.222;16.342;2022-11-20T08:30:20;4.10;99.90
17170;DHT22;8700;48.222;16.342;2022-11-20T08:33:42;4.30;99.90
17170;DHT22;8700;48.222;16.342;2022-11-20T08:37:05;4.30;99.90
17170;DHT22;8700;48.222;16.342;2022-11-20T08:40:26;4.50;99.90
17170;DHT22;8700;48.222;16.342;2022-11-20T08:43:48;4.50;99.90
17170;DHT22;8700;48.222;16.342;2022-11-20T08:47:10;4.70;99.90
17170;DHT22;8700;48.222;16.342;2022-11-20T08:50:32;4.70;99.90
17170;DHT22;8700;48.222;16.342;2022-11-20T08:53:55;4.80;99.90
17170;DHT22;8700;48.222;16.342;2022-11-20T08:57:18;4.90;99.90
17170;DHT22;8700;48.222;16.342;2022-11-20T09:00:39;4.70;99.90
17170;DHT22;8700;48.222;16.342;2022-11-20T09:04:01;4.50;99.90
17170;DHT22;8700;48.222;16.342;2022-11-20T09:07:23;4.40;99.90
17170;DHT22;8700;48.222;16.342;2022-11-20T09:10:52;4.40;99.90
17170;DHT22;8700;48.222;16.342;2022-11-20T09:14:14;4.80;99.90
17170;DHT22;8700;48.222;16.342;2022-11-20T09:17:35;5.10;99.90
17170;DHT22;8700;48.222;16.342;2022-11-20T09:20:57;5.00;99.90
17170;DHT22;8700;48.222;16.342;2022-11-20T09:24:22;4.90;99.90
17170;DHT22;8700;48.222;16.342;2022-11-20T09:27:45;5.00;99.90
17170;DHT22;8700;48.222;16.342;2022-11-20T09:31:07;4.90;99.90
17170;DHT22;8700;48.222;16.342;2022-11-20T09:34:29;4.80;99.90
17170;DHT22;8700;48.222;16.342;2022-11-20T09:37:50;4.90;99.90
17170;DHT22;8700;48.222;16.342;2022-11-20T09:41:29;5.10;99.90
17170;DHT22;8700;48.222;16.342;2022-11-20T09:45:23;5.10;99.90
17170;DHT22;8700;48.222;16.342;2022-11-20T09:48:57;5.10;99.90
17170;DHT22;8700;48.222;16.342;2022-11-20T09:52:30;5.00;99.90
17170;DHT22;8700;48.222;16.342;2022-11-20T09:55:52;5.00;99.90
17170;DHT22;8700;48.222;16.342;2022-11-20T09:59:27;5.10;99.90
17170;DHT22;8700;48.222;16.342;2022-11-20T10:02:58;5.10;99.90
17170;DHT22;8700;48.222;16.342;2022-11-20T10:06:26;5.10;99.90
17170;DHT22;8700;48.222;16.342;2022-11-20T10:09:52;5.20;99.90
17170;DHT22;8700;48.222;16.342;2022-11-20T10:13:29;5.40;99.90
17170;DHT22;8700;48.222;16.342;2022-11-20T10:17:02;5.60;99.90
17170;DHT22;8700;48.222;16.342;2022-11-20T10:20:29;5.80;99.90
17170;DHT22;8700;48.222;16.342;2022-11-20T10:24:07;5.50;99.90
17170;DHT22;8700;48.222;16.342;2022-11-20T10:28:00;5.40;99.90
17170;DHT22;8700;48.222;16.342;2022-11-20T10:31:30;5.30;99.90
17170;DHT22;8700;48.222;16.342;2022-11-20T10:34:57;5.40;99.90
17170;DHT22;8700;48.222;16.342;2022-11-20T10:38:24;5.40;99.90
17170;DHT22;8700;48.222;16.342;2022-11-20T10:41:50;5.10;99.90
17170;DHT22;8700;48.222;16.342;2022-11-20T10:45:30;5.20;99.90
17170;DHT22;8700;48.222;16.342;2022-11-20T10:48:52;5.30;99.90
17170;DHT22;8700;48.222;16.342;2022-11-20T10:52:22;5.20;99.90
17170;DHT22;8700;48.222;16.342;2022-11-20T10:55:53;5.40;99.90
17170;DHT22;8700;48.222;16.342;2022-11-20T10:59:33;5.30;99.90
17170;DHT22;8700;48.222;16.342;2022-11-20T11:02:56;5.30;99.90
17170;DHT22;8700;48.222;16.342;2022-11-20T11:06:25;5.80;99.90
17170;DHT22;8700;48.222;16.342;2022-11-20T11:09:52;5.90;99.90
17170;DHT22;8700;48.222;16.342;2022-11-20T11:13:22;5.70;99.90
17170;DHT22;8700;48.222;16.342;2022-11-20T11:16:50;5.90;99.90
17170;DHT22;8700;48.222;16.342;2022-11-20T11:20:17;6.00;99.90
17170;DHT22;8700;48.222;16.342;2022-11-20T11:23:40;6.00;99.90
17170;DHT22;8700;48.222;16.342;2022-11-20T11:27:04;6.20;99.90
17170;DHT22;8700;48.222;16.342;2022-11-20T11:30:43;6.20;99.90
17170;DHT22;8700;48.222;16.342;2022-11-20T11:34:05;5.70;99.90
17170;DHT22;8700;48.222;16.342;2022-11-20T11:37:33;6.00;99.90
17170;DHT22;8700;48.222;16.342;2022-11-20T11:40:56;6.10;99.90
17170;DHT22;8700;48.222;16.342;2022-11-20T11:44:20;6.00;99.90
17170;DHT22;8700;48.222;16.342;2022-11-20T11:48:03;6.00;99.90
17170;DHT22;8700;48.222;16.342;2022-11-20T11:51:34;6.30;99.90
17170;DHT22;8700;48.222;16.342;2022-11-20T11:54:59;6.10;99.90
17170;DHT22;8700;48.222;16.342;2022-11-20T11:58:40;6.60;99.90
17170;DHT22;8700;48.222;16.342;2022-11-20T12:02:15;7.30;99.90
17170;DHT22;8700;48.222;16.342;2022-11-20T12:05:49;8.70;99.90
17170;DHT22;8700;48.222;16.342;2022-11-20T12:09:12;9.80;99.90
17170;DHT22;8700;48.222;16.342;2022-11-20T12:12:37;9.30;99.90
17170;DHT22;8700;48.222;16.342;2022-11-20T12:16:03;8.90;99.90
17170;DHT22;8700;48.222;16.342;2022-11-20T12:19:27;8.30;99.90
17170;DHT22;8700;48.222;16.342;2022-11-20T12:22:55;8.10;99.90
17170;DHT22;8700;48.222;16.342;2022-11-20T12:26:27;7.90;99.90
17170;DHT22;8700;48.222;16.342;2022-11-20T12:29:58;7.50;99.90
17170;DHT22;8700;48.222;16.342;2022-11-20T12:33:36;7.40;99.90
17170;DHT22;8700;48.222;16.342;2022-11-20T12:37:06;7.40;99.90
17170;DHT22;8700;48.222;16.342;2022-11-20T12:40:38;7.50;99.90
17170;DHT22;8700;48.222;16.342;2022-11-20T12:44:19;7.80;99.90
17170;DHT22;8700;48.222;16.342;2022-11-20T12:52:25;8.10;99.90
17170;DHT22;8700;48.222;16.342;2022-11-20T12:55:56;8.00;99.90
17170;DHT22;8700;48.222;16.342;2022-11-20T12:59:34;8.00;99.90
17170;DHT22;8700;48.222;16.342;2022-11-20T13:03:09;8.50;99.90
17170;DHT22;8700;48.222;16.342;2022-11-20T13:06:35;8.90;99.90
17170;DHT22;8700;48.222;16.342;2022-11-20T13:09:59;8.90;99.90
17170;DHT22;8700;48.222;16.342;2022-11-20T13:13:25;8.90;99.90
17170;DHT22;8700;48.222;16.342;2022-11-20T13:16:54;8.70;99.90
17170;DHT22;8700;48.222;16.342;2022-11-20T13:20:19;8.60;99.90
17170;DHT22;8700;48.222;16.342;2022-11-20T13:23:40;8.80;99.90
17170;DHT22;8700;48.222;16.342;2022-11-20T13:27:19;8.90;99.90
17170;DHT22;8700;48.222;16.342;2022-11-20T13:30:51;8.60;99.90
17170;DHT22;8700;48.222;16.342;2022-11-20T13:34:22;8.20;99.90
17170;DHT22;8700;48.222;16.342;2022-11-20T13:37:44;7.90;99.90
17170;DHT22;8700;48.222;16.342;2022-11-20T13:41:08;8.00;99.90
17170;DHT22;8700;48.222;16.342;2022-11-20T13:44:47;8.10;99.90
17170;DHT22;8700;48.222;16.342;2022-11-20T13:48:20;8.20;99.90
17170;DHT22;8700;48.222;16.342;2022-11-20T13:51:44;8.30;99.90
17170;DHT22;8700;48.222;16.342;2022-11-20T13:55:16;8.20;99.90
17170;DHT22;8700;48.222;16.342;2022-11-20T13:58:47;8.30;99.90
17170;DHT22;8700;48.222;16.342;2022-11-20T14:02:13;8.60;99.90
17170;DHT22;8700;48.222;16.342;2022-11-20T14:05:39;8.70;99.90
17170;DHT22;8700;48.222;16.342;2022-11-20T14:09:03;8.80;99.90
17170;DHT22;8700;48.222;16.342;2022-11-20T14:12:28;8.70;99.90
17170;DHT22;8700;48.222;16.342;2022-11-20T14:15:57;8.60;99.90
17170;DHT22;8700;48.222;16.342;2022-11-20T14:19:29;8.30;99.90
17170;DHT22;8700;48.222;16.342;2022-11-20T14:22:53;8.30;99.90
17170;DHT22;8700;48.222;16.342;2022-11-20T14:26:18;8.60;99.90
17170;DHT22;8700;48.222;16.342;2022-11-20T14:29:42;8.60;99.90
17170;DHT22;8700;48.222;16.342;2022-11-20T14:33:05;8.70;99.90
17170;DHT22;8700;48.222;16.342;2022-11-20T14:36:27;8.70;99.90
17170;DHT22;8700;48.222;16.342;2022-11-20T14:39:52;8.60;99.90
17170;DHT22;8700;48.222;16.342;2022-11-20T14:43:29;8.40;99.90
17170;DHT22;8700;48.222;16.342;2022-11-20T14:46:55;8.50;99.90
17170;DHT22;8700;48.222;16.342;2022-11-20T14:50:20;8.50;99.90
17170;DHT22;8700;48.222;16.342;2022-11-20T14:53:43;8.50;99.90
17170;DHT22;8700;48.222;16.342;2022-11-20T14:57:21;8.10;99.90
17170;DHT22;8700;48.222;16.342;2022-11-20T15:00:53;8.00;99.90
17170;DHT22;8700;48.222;16.342;2022-11-20T15:04:14;7.90;99.90
17170;DHT22;8700;48.222;16.342;2022-11-20T15:07:39;7.90;99.90
17170;DHT22;8700;48.222;16.342;2022-11-20T15:11:16;7.80;99.90
17170;DHT22;8700;48.222;16.342;2022-11-20T15:14:40;7.80;99.90
17170;DHT22;8700;48.222;16.342;2022-11-20T15:18:02;7.90;99.90
17170;DHT22;8700;48.222;16.342;2022-11-20T15:21:36;7.90;99.90
17170;DHT22;8700;48.222;16.342;2022-11-20T15:24:57;7.90;99.90
17170;DHT22;8700;48.222;16.342;2022-11-20T15:28:30;7.80;99.90
17170;DHT22;8700;48.222;16.342;2022-11-20T15:31:55;7.70;99.90
17170;DHT22;8700;48.222;16.342;2022-11-20T15:35:20;7.30;99.90
17170;DHT22;8700;48.222;16.342;2022-11-20T15:38:42;7.10;99.90
17170;DHT22;8700;48.222;16.342;2022-11-20T15:42:03;7.10;99.90
17170;DHT22;8700;48.222;16.342;2022-11-20T15:45:25;7.30;99.90
17170;DHT22;8700;48.222;16.342;2022-11-20T15:48:51;7.50;99.90
17170;DHT22;8700;48.222;16.342;2022-11-20T15:52:15;7.60;99.90
17170;DHT22;8700;48.222;16.342;2022-11-20T15:55:37;7.50;99.90
17170;DHT22;8700;48.222;16.342;2022-11-20T15:58:59;7.40;99.90
17170;DHT22;8700;48.222;16.342;2022-11-20T16:02:20;7.40;99.90
17170;DHT22;8700;48.222;16.342;2022-11-20T16:05:44;7.40;99.90
17170;DHT22;8700;48.222;16.342;2022-11-20T16:09:05;7.50;99.90
17170;DHT22;8700;48.222;16.342;2022-11-20T16:12:26;7.50;99.90
17170;DHT22;8700;48.222;16.342;2022-11-20T16:16:07;7.50;99.90
17170;DHT22;8700;48.222;16.342;2022-11-20T16:19:30;7.50;99.90
17170;DHT22;8700;48.222;16.342;2022-11-20T16:22:54;7.40;99.90
17170;DHT22;8700;48.222;16.342;2022-11-20T16:26:17;7.30;99.90
17170;DHT22;8700;48.222;16.342;2022-11-20T16:29:45;7.30;99.90
17170;DHT22;8700;48.222;16.342;2022-11-20T16:33:14;7.40;99.90
17170;DHT22;8700;48.222;16.342;2022-11-20T16:36:39;7.30;99.90
17170;DHT22;8700;48.222;16.342;2022-11-20T16:40:03;7.00;99.90
17170;DHT22;8700;48.222;16.342;2022-11-20T16:43:24;7.00;99.90
17170;DHT22;8700;48.222;16.342;2022-11-20T16:46:49;7.00;99.90
17170;DHT22;8700;48.222;16.342;2022-11-20T16:50:14;6.80;99.90
17170;DHT22;8700;48.222;16.342;2022-11-20T16:53:37;6.80;99.90
17170;DHT22;8700;48.222;16.342;2022-11-20T16:57:00;6.90;99.90
17170;DHT22;8700;48.222;16.342;2022-11-20T17:00:24;7.00;99.90
17170;DHT22;8700;48.222;16.342;2022-11-20T17:03:47;7.10;99.90
17170;DHT22;8700;48.222;16.342;2022-11-20T17:07:13;6.90;99.90
17170;DHT22;8700;48.222;16.342;2022-11-20T17:10:34;6.70;99.90
17170;DHT22;8700;48.222;16.342;2022-11-20T17:13:58;6.80;99.90
17170;DHT22;8700;48.222;16.342;2022-11-20T17:17:21;6.90;99.90
17170;DHT22;8700;48.222;16.342;2022-11-20T17:20:50;6.80;99.90
17170;DHT22;8700;48.222;16.342;2022-11-20T17:24:12;6.80;99.90
17170;DHT22;8700;48.222;16.342;2022-11-20T17:27:35;6.80;99.90
17170;DHT22;8700;48.222;16.342;2022-11-20T17:31:01;6.90;99.90
17170;DHT22;8700;48.222;16.342;2022-11-20T17:34:23;6.80;99.90
17170;DHT22;8700;48.222;16.342;2022-11-20T17:37:44;6.80;99.90
17170;DHT22;8700;48.222;16.342;2022-11-20T17:41:08;6.90;99.90
17170;DHT22;8700;48.222;16.342;2022-11-20T17:44:29;6.90;99.90
17170;DHT22;8700;48.222;16.342;2022-11-20T17:47:52;7.00;99.90
17170;DHT22;8700;48.222;16.342;2022-11-20T17:51:15;6.90;99.90
17170;DHT22;8700;48.222;16.342;2022-11-20T17:54:37;6.70;99.90
17170;DHT22;8700;48.222;16.342;2022-11-20T17:57:59;6.70;99.90
17170;DHT22;8700;48.222;16.342;2022-11-20T18:01:25;6.70;99.90
17170;DHT22;8700;48.222;16.342;2022-11-20T18:04:49;6.50;99.90
17170;DHT22;8700;48.222;16.342;2022-11-20T18:08:10;6.40;99.90
17170;DHT22;8700;48.222;16.342;2022-11-20T18:11:33;6.30;99.90
17170;DHT22;8700;48.222;16.342;2022-11-20T18:14:55;6.50;99.90
17170;DHT22;8700;48.222;16.342;2022-11-20T18:18:17;6.30;99.90
17170;DHT22;8700;48.222;16.342;2022-11-20T18:21:39;6.50;99.90
17170;DHT22;8700;48.222;16.342;2022-11-20T18:25:01;6.60;99.90
17170;DHT22;8700;48.222;16.342;2022-11-20T18:28:22;6.50;99.90
17170;DHT22;8700;48.222;16.342;2022-11-20T18:31:44;6.50;99.90
17170;DHT22;8700;48.222;16.342;2022-11-20T18:35:06;6.60;99.90
17170;DHT22;8700;48.222;16.342;2022-11-20T18:38:29;6.50;99.90
17170;DHT22;8700;48.222;16.342;2022-11-20T18:41:52;6.60;99.90
17170;DHT22;8700;48.222;16.342;2022-11-20T18:45:30;6.50;99.90
17170;DHT22;8700;48.222;16.342;2022-11-20T18:48:52;6.20;99.90
17170;DHT22;8700;48.222;16.342;2022-11-20T18:52:13;6.20;99.90
17170;DHT22;8700;48.222;16.342;2022-11-20T18:55:36;6.00;99.90
17170;DHT22;8700;48.222;16.342;2022-11-20T18:58:58;6.00;99.90
17170;DHT22;8700;48.222;16.342;2022-11-20T19:02:21;6.10;99.90
17170;DHT22;8700;48.222;16.342;2022-11-20T19:05:43;6.00;99.90
17170;DHT22;8700;48.222;16.342;2022-11-20T19:09:05;6.10;99.90
17170;DHT22;8700;48.222;16.342;2022-11-20T19:12:29;6.20;99.90
17170;DHT22;8700;48.222;16.342;2022-11-20T19:15:50;6.40;99.90
17170;DHT22;8700;48.222;16.342;2022-11-20T19:19:13;6.60;99.90
17170;DHT22;8700;48.222;16.342;2022-11-20T19:22:35;6.80;99.90
17170;DHT22;8700;48.222;16.342;2022-11-20T19:25:57;6.90;99.90
17170;DHT22;8700;48.222;16.342;2022-11-20T19:29:21;6.80;99.90
17170;DHT22;8700;48.222;16.342;2022-11-20T19:32:42;6.80;99.90
17170;DHT22;8700;48.222;16.342;2022-11-20T19:36:08;6.80;99.90
17170;DHT22;8700;48.222;16.342;2022-11-20T19:39:30;6.80;99.90
17170;DHT22;8700;48.222;16.342;2022-11-20T19:42:51;6.80;99.90
17170;DHT22;8700;48.222;16.342;2022-11-20T19:46:15;7.00;99.90
17170;DHT22;8700;48.222;16.342;2022-11-20T19:49:37;7.10;99.90
17170;DHT22;8700;48.222;16.342;2022-11-20T19:53:00;7.30;99.90
17170;DHT22;8700;48.222;16.342;2022-11-20T19:56:22;7.50;99.90
17170;DHT22;8700;48.222;16.342;2022-11-20T19:59:44;7.60;99.90
17170;DHT22;8700;48.222;16.342;2022-11-20T20:03:07;7.80;99.90
17170;DHT22;8700;48.222;16.342;2022-11-20T20:06:29;7.90;99.90
17170;DHT22;8700;48.222;16.342;2022-11-20T20:09:54;8.00;99.90
17170;DHT22;8700;48.222;16.342;2022-11-20T20:13:16;8.00;99.90
17170;DHT22;8700;48.222;16.342;2022-11-20T20:16:37;8.10;99.90
17170;DHT22;8700;48.222;16.342;2022-11-20T20:20:03;8.00;99.90
17170;DHT22;8700;48.222;16.342;2022-11-20T20:23:25;8.00;99.90
17170;DHT22;8700;48.222;16.342;2022-11-20T20:26:47;8.00;99.90
17170;DHT22;8700;48.222;16.342;2022-11-20T20:30:09;8.10;99.90
17170;DHT22;8700;48.222;16.342;2022-11-20T20:33:30;8.00;99.90
17170;DHT22;8700;48.222;16.342;2022-11-20T20:36:53;7.80;99.90
17170;DHT22;8700;48.222;16.342;2022-11-20T20:40:15;7.80;99.90
17170;DHT22;8700;48.222;16.342;2022-11-20T20:43:38;7.70;99.90
17170;DHT22;8700;48.222;16.342;2022-11-20T20:47:17;7.70;99.90
17170;DHT22;8700;48.222;16.342;2022-11-20T20:50:38;7.90;99.90
17170;DHT22;8700;48.222;16.342;2022-11-20T20:54:02;8.10;99.90
17170;DHT22;8700;48.222;16.342;2022-11-20T20:57:24;8.20;99.90
17170;DHT22;8700;48.222;16.342;2022-11-20T21:00:47;8.10;99.90
17170;DHT22;8700;48.222;16.342;2022-11-20T21:04:08;8.00;99.90
17170;DHT22;8700;48.222;16.342;2022-11-20T21:07:30;8.00;99.90
17170;DHT22;8700;48.222;16.342;2022-11-20T21:10:54;7.80;99.90
17170;DHT22;8700;48.222;16.342;2022-11-20T21:14:16;7.90;99.90
17170;DHT22;8700;48.222;16.342;2022-11-20T21:17:37;8.10;99.90
17170;DHT22;8700;48.222;16.342;2022-11-20T21:21:04;8.00;99.90
17170;DHT22;8700;48.222;16.342;2022-11-20T21:24:43;7.90;99.90
17170;DHT22;8700;48.222;16.342;2022-11-20T21:28:06;8.00;99.90
17170;DHT22;8700;48.222;16.342;2022-11-20T21:31:28;8.00;99.90
17170;DHT22;8700;48.222;16.342;2022-11-20T21:34:50;8.10;99.90
17170;DHT22;8700;48.222;16.342;2022-11-20T21:38:11;8.10;99.90
17170;DHT22;8700;48.222;16.342;2022-11-20T21:41:33;8.20;99.90
17170;DHT22;8700;48.222;16.342;2022-11-20T21:44:57;8.10;99.90
17170;DHT22;8700;48.222;16.342;2022-11-20T21:48:19;8.00;99.90
17170;DHT22;8700;48.222;16.342;2022-11-20T21:51:41;8.00;99.90
17170;DHT22;8700;48.222;16.342;2022-11-20T21:55:02;8.00;99.90